Linzy — SIRU — position and weather

sailwx.info

Track history (hours):
 
Tides and Currents Weather Stations Pressure Air Temp Water Temp Dewpoint Dewpoint Depression Visibility Wind Speed Wind Dir Waves Ship Positions

Linzy

Last reported at 2014-Sep-19 01:27 UTC. Time now 2014-Sep-19 01:55 UTC.
Position N 55°33' E 014°21'.

Length 15 m.

Type: Fishing. MMSI: 265507290.

Date/timePositionNaut miles runAvg speedWind from/ knotsBaromVisibWave heightAir tempDewpointWater temp
2014-Sep-19 01:27N 55°33' E 014°21'0 0.0
2014-Sep-18 23:21N 55°33' E 014°21'0 0.0
2014-Sep-18 22:33N 55°33' E 014°22'0 0.0
2014-Sep-18 21:15N 55°33' E 014°21'0 0.0
2014-Sep-18 19:21N 55°33' E 014°21'0 0.0
2014-Sep-18 18:21N 55°33' E 014°21'0 0.0
2014-Sep-18 17:33N 55°33' E 014°21'3 2.6
2014-Sep-18 16:30N 55°35' E 014°26'4 4.5
2014-Sep-18 15:33N 55°37' E 014°33'3 2.8
2014-Sep-18 14:33N 55°39' E 014°36'3 0.4
2014-Sep-18 07:33N 55°39' E 014°41'11 3.4
2014-Sep-18 04:17N 55°35' E 014°23'1 1.9
2014-Sep-18 03:31N 55°33' E 014°21'0 0.0
2014-Sep-18 02:31N 55°33' E 014°21'0 0.0
2014-Sep-18 01:19N 55°33' E 014°21'0 0.0
2014-Sep-18 00:25N 55°33' E 014°21'0 0.0
2014-Sep-17 23:19N 55°33' E 014°21'0 0.0
2014-Sep-17 22:07N 55°33' E 014°21'0 0.0
2014-Sep-17 21:19N 55°33' E 014°21'0 0.0
2014-Sep-17 20:13N 55°33' E 014°21'0 0.0
2014-Sep-17 19:31N 55°33' E 014°21'0 0.0
2014-Sep-17 18:25N 55°33' E 014°21'5 5.8
2014-Sep-17 17:31N 55°36' E 014°30'4 3.9
2014-Sep-17 16:26N 55°37' E 014°37'3 2.9
2014-Sep-17 15:15N 55°38' E 014°43'5 2.7
2014-Sep-17 13:29N 55°40' E 014°50'3 2.3
2014-Sep-17 12:22N 55°43' E 014°51'4 1.1
2014-Sep-17 08:33N 55°40' E 014°46'9 2.9
2014-Sep-17 05:33N 55°37' E 014°31'7 3.3
2014-Sep-17 03:29N 55°33' E 014°21'0 0.0
2014-Sep-17 02:29N 55°33' E 014°22'0 0.0
2014-Sep-17 01:29N 55°33' E 014°21'0 0.0
2014-Sep-17 00:29N 55°33' E 014°21'0 0.0
2014-Sep-16 23:23N 55°33' E 014°21'0 0.0
2014-Sep-16 22:17N 55°33' E 014°22'0 0.0
2014-Sep-16 21:29N 55°33' E 014°21'0 0.0
2014-Sep-16 20:23N 55°33' E 014°21'0 0.0
2014-Sep-16 18:23N 55°33' E 014°21'0 0.0
2014-Sep-16 17:17N 55°33' E 014°21'0 0.0
2014-Sep-16 16:11N 55°33' E 014°21'0 0.0
2014-Sep-16 13:17N 55°33' E 014°22'0 0.0
2014-Sep-16 12:17N 55°33' E 014°22'0 0.0
2014-Sep-16 11:29N 55°33' E 014°22'0 0.0
2014-Sep-16 10:05N 55°33' E 014°21'0 0.0
2014-Sep-16 09:23N 55°33' E 014°21'0 0.0
2014-Sep-16 05:29N 55°33' E 014°22'0 0.0
2014-Sep-16 04:05N 55°33' E 014°21'0 0.0
2014-Sep-16 03:29N 55°33' E 014°22'0 0.0
2014-Sep-16 02:29N 55°33' E 014°21'0 0.0
2014-Sep-16 01:17N 55°33' E 014°21'0 0.0
2014-Sep-16 00:29N 55°33' E 014°22'0 0.0
2014-Sep-15 23:29N 55°33' E 014°21'0 0.0
2014-Sep-15 22:11N 55°33' E 014°22'0 0.0
2014-Sep-15 21:23N 55°33' E 014°21'0 0.0
2014-Sep-15 20:23N 55°33' E 014°21'0 0.0
2014-Sep-15 19:29N 55°33' E 014°22'0 0.0
2014-Sep-15 18:23N 55°33' E 014°22'0 0.0
2014-Sep-15 17:29N 55°33' E 014°21'0 0.0
2014-Sep-15 16:29N 55°33' E 014°21'0 0.0
2014-Sep-15 15:29N 55°33' E 014°21'0 0.0
2014-Sep-15 14:23N 55°33' E 014°21'0 0.0
2014-Sep-15 13:23N 55°33' E 014°22'0 0.0
2014-Sep-15 12:17N 55°33' E 014°21'0 0.0
2014-Sep-15 11:29N 55°33' E 014°22'0 0.0
2014-Sep-15 10:29N 55°33' E 014°22'0 0.0
2014-Sep-15 09:23N 55°33' E 014°21'0 0.0
2014-Sep-15 08:23N 55°33' E 014°21'0 0.0
2014-Sep-15 07:23N 55°33' E 014°21'0 0.0
2014-Sep-15 06:29N 55°33' E 014°21'0 0.0
2014-Sep-15 05:17N 55°33' E 014°22'0 0.0
2014-Sep-15 04:29N 55°33' E 014°21'0 0.0
2014-Sep-15 03:23N 55°33' E 014°21'0 0.0
2014-Sep-15 02:30N 55°33' E 014°21'0 0.0
2014-Sep-15 01:23N 55°33' E 014°21'0 0.0
2014-Sep-15 00:18N 55°33' E 014°21'0 0.0
2014-Sep-14 23:29N 55°33' E 014°21'0 0.0
2014-Sep-14 22:23N 55°33' E 014°22'0 0.0
2014-Sep-14 21:30N 55°33' E 014°21'0 0.0
2014-Sep-14 20:18N 55°33' E 014°21'0 0.0
2014-Sep-14 19:12N 55°33' E 014°22'0 0.0
2014-Sep-14 18:30N 55°33' E 014°21'0 0.0
2014-Sep-14 17:30N 55°33' E 014°21'0 0.0
2014-Sep-14 16:30N 55°33' E 014°22'0 0.0
2014-Sep-14 15:18N 55°33' E 014°21'0 0.0
2014-Sep-14 14:24N 55°33' E 014°21'0 0.0
2014-Sep-14 13:24N 55°33' E 014°22'0 0.0
2014-Sep-14 12:12N 55°33' E 014°21'0 0.0
2014-Sep-14 11:30N 55°33' E 014°22'0 0.0
2014-Sep-14 10:12N 55°33' E 014°21'0 0.0
2014-Sep-14 08:18N 55°33' E 014°21'0 0.0
2014-Sep-12 10:06N 55°33' E 014°21'0 0.0
2014-Sep-12 09:30N 55°33' E 014°21'0 0.0
2014-Sep-12 08:24N 55°33' E 014°21'0 0.0
2014-Sep-12 06:06N 55°33' E 014°21'0 0.0
2014-Sep-12 05:30N 55°33' E 014°21'0 0.0
2014-Sep-12 03:12N 55°33' E 014°21'0 0.0
2014-Sep-12 01:18N 55°33' E 014°21'0 0.0
2014-Sep-11 23:30N 55°33' E 014°21'0 0.0
2014-Sep-11 22:12N 55°33' E 014°22'0 0.0
2014-Sep-11 21:12N 55°33' E 014°21'0 0.0
2014-Sep-11 20:30N 55°33' E 014°21'0 0.0
2014-Sep-11 18:18N 55°33' E 014°21'0 0.0
2014-Sep-11 17:18N 55°33' E 014°21'0 0.0
2014-Sep-11 16:18N 55°33' E 014°22'3 4.2
2014-Sep-11 15:33N 55°34' E 014°27'7 6.6
2014-Sep-11 14:31N 55°37' E 014°38'7 3.0
2014-Sep-11 12:15N 55°39' E 014°49'2 0.4
2014-Sep-11 05:33N 55°37' E 014°49'9 6.9
2014-Sep-11 04:14N 55°36' E 014°33'5 7.3
2014-Sep-11 03:32N 55°34' E 014°24'2 1.6
2014-Sep-11 02:29N 55°33' E 014°21'0 0.0
2014-Sep-11 01:23N 55°33' E 014°21'0 0.0
2014-Sep-11 00:29N 55°33' E 014°21'0 0.0
2014-Sep-10 23:23N 55°33' E 014°21'0 0.0
2014-Sep-10 22:23N 55°33' E 014°21'0 0.0
2014-Sep-10 21:23N 55°33' E 014°21'0 0.0
2014-Sep-10 20:29N 55°33' E 014°21'0 0.0
2014-Sep-10 19:29N 55°33' E 014°21'0 0.0
2014-Sep-10 18:29N 55°33' E 014°21'0 0.0
2014-Sep-10 17:29N 55°33' E 014°21'4 4.1
2014-Sep-10 16:32N 55°35' E 014°28'6 6.1
2014-Sep-10 15:32N 55°37' E 014°38'10 0.8
2014-Sep-10 03:13N 55°34' E 014°22'0 0.2
2014-Sep-10 02:32N 55°33' E 014°21'0 0.0
2014-Sep-10 01:26N 55°33' E 014°21'0 0.0
2014-Sep-10 00:32N 55°33' E 014°21'0 0.0
2014-Sep-09 23:08N 55°33' E 014°21'0 0.0
2014-Sep-09 22:32N 55°33' E 014°21'0 0.0
2014-Sep-09 21:32N 55°33' E 014°21'0 0.0
2014-Sep-09 20:32N 55°33' E 014°21'0 0.0
2014-Sep-09 19:26N 55°33' E 014°21'0 0.0
2014-Sep-09 18:32N 55°33' E 014°21'0 0.0
2014-Sep-09 17:26N 55°33' E 014°21'0 0.0
2014-Sep-09 16:20N 55°33' E 014°21'0 0.0
2014-Sep-09 14:32N 55°33' E 014°21'0 0.0
2014-Sep-09 13:32N 55°33' E 014°21'0 0.0
2014-Sep-09 12:32N 55°33' E 014°21'0 0.0
2014-Sep-09 11:31N 55°33' E 014°21'0 0.0
2014-Sep-09 10:31N 55°33' E 014°22'0 0.0
2014-Sep-09 09:31N 55°33' E 014°22'0 0.0
2014-Sep-09 08:29N 55°33' E 014°21'0 0.0
2014-Sep-09 07:11N 55°33' E 014°21'0 0.0
2014-Sep-09 06:23N 55°33' E 014°21'0 0.0
2014-Sep-09 05:29N 55°33' E 014°21'0 0.0
2014-Sep-09 04:17N 55°33' E 014°21'0 0.0
2014-Sep-09 03:23N 55°33' E 014°21'0 0.0
2014-Sep-09 02:23N 55°33' E 014°21'  
Track history (hours):
 
Tides and Currents Weather Stations Pressure Air Temp Water Temp Dewpoint Dewpoint Depression Visibility Wind Speed Wind Dir Waves Ship Positions

Linzy

Last reported at 2014-Sep-19 01:27 UTC. Time now 2014-Sep-19 01:55 UTC.
Position N 55°33' E 014°21'.

Length 15 m.

Type: Fishing. MMSI: 265507290.

Date/timePositionNaut miles runAvg speedWind from/ knotsBaromVisibWave heightAir tempDewpointWater temp
2014-Sep-19 01:27N 55°33' E 014°21'0 0.0
2014-Sep-18 23:21N 55°33' E 014°21'0 0.0
2014-Sep-18 22:33N 55°33' E 014°22'0 0.0
2014-Sep-18 21:15N 55°33' E 014°21'0 0.0
2014-Sep-18 19:21N 55°33' E 014°21'0 0.0
2014-Sep-18 18:21N 55°33' E 014°21'0 0.0
2014-Sep-18 17:33N 55°33' E 014°21'3 2.6
2014-Sep-18 16:30N 55°35' E 014°26'4 4.5
2014-Sep-18 15:33N 55°37' E 014°33'3 2.8
2014-Sep-18 14:33N 55°39' E 014°36'3 0.4
2014-Sep-18 07:33N 55°39' E 014°41'11 3.4
2014-Sep-18 04:17N 55°35' E 014°23'1 1.9
2014-Sep-18 03:31N 55°33' E 014°21'0 0.0
2014-Sep-18 02:31N 55°33' E 014°21'0 0.0
2014-Sep-18 01:19N 55°33' E 014°21'0 0.0
2014-Sep-18 00:25N 55°33' E 014°21'0 0.0
2014-Sep-17 23:19N 55°33' E 014°21'0 0.0
2014-Sep-17 22:07N 55°33' E 014°21'0 0.0
2014-Sep-17 21:19N 55°33' E 014°21'0 0.0
2014-Sep-17 20:13N 55°33' E 014°21'0 0.0
2014-Sep-17 19:31N 55°33' E 014°21'0 0.0
2014-Sep-17 18:25N 55°33' E 014°21'5 5.8
2014-Sep-17 17:31N 55°36' E 014°30'4 3.9
2014-Sep-17 16:26N 55°37' E 014°37'3 2.9
2014-Sep-17 15:15N 55°38' E 014°43'5 2.7
2014-Sep-17 13:29N 55°40' E 014°50'3 2.3
2014-Sep-17 12:22N 55°43' E 014°51'4 1.1
2014-Sep-17 08:33N 55°40' E 014°46'9 2.9
2014-Sep-17 05:33N 55°37' E 014°31'7 3.3
2014-Sep-17 03:29N 55°33' E 014°21'0 0.0
2014-Sep-17 02:29N 55°33' E 014°22'0 0.0
2014-Sep-17 01:29N 55°33' E 014°21'0 0.0
2014-Sep-17 00:29N 55°33' E 014°21'0 0.0
2014-Sep-16 23:23N 55°33' E 014°21'0 0.0
2014-Sep-16 22:17N 55°33' E 014°22'0 0.0
2014-Sep-16 21:29N 55°33' E 014°21'0 0.0
2014-Sep-16 20:23N 55°33' E 014°21'0 0.0
2014-Sep-16 18:23N 55°33' E 014°21'0 0.0
2014-Sep-16 17:17N 55°33' E 014°21'0 0.0
2014-Sep-16 16:11N 55°33' E 014°21'0 0.0
2014-Sep-16 13:17N 55°33' E 014°22'0 0.0
2014-Sep-16 12:17N 55°33' E 014°22'0 0.0
2014-Sep-16 11:29N 55°33' E 014°22'0 0.0
2014-Sep-16 10:05N 55°33' E 014°21'0 0.0
2014-Sep-16 09:23N 55°33' E 014°21'0 0.0
2014-Sep-16 05:29N 55°33' E 014°22'0 0.0
2014-Sep-16 04:05N 55°33' E 014°21'0 0.0
2014-Sep-16 03:29N 55°33' E 014°22'0 0.0
2014-Sep-16 02:29N 55°33' E 014°21'0 0.0
2014-Sep-16 01:17N 55°33' E 014°21'0 0.0
2014-Sep-16 00:29N 55°33' E 014°22'0 0.0
2014-Sep-15 23:29N 55°33' E 014°21'0 0.0
2014-Sep-15 22:11N 55°33' E 014°22'0 0.0
2014-Sep-15 21:23N 55°33' E 014°21'0 0.0
2014-Sep-15 20:23N 55°33' E 014°21'0 0.0
2014-Sep-15 19:29N 55°33' E 014°22'0 0.0
2014-Sep-15 18:23N 55°33' E 014°22'0 0.0
2014-Sep-15 17:29N 55°33' E 014°21'0 0.0
2014-Sep-15 16:29N 55°33' E 014°21'0 0.0
2014-Sep-15 15:29N 55°33' E 014°21'0 0.0
2014-Sep-15 14:23N 55°33' E 014°21'0 0.0
2014-Sep-15 13:23N 55°33' E 014°22'0 0.0
2014-Sep-15 12:17N 55°33' E 014°21'0 0.0
2014-Sep-15 11:29N 55°33' E 014°22'0 0.0
2014-Sep-15 10:29N 55°33' E 014°22'0 0.0
2014-Sep-15 09:23N 55°33' E 014°21'0 0.0
2014-Sep-15 08:23N 55°33' E 014°21'0 0.0
2014-Sep-15 07:23N 55°33' E 014°21'0 0.0
2014-Sep-15 06:29N 55°33' E 014°21'0 0.0
2014-Sep-15 05:17N 55°33' E 014°22'0 0.0
2014-Sep-15 04:29N 55°33' E 014°21'0 0.0
2014-Sep-15 03:23N 55°33' E 014°21'0 0.0
2014-Sep-15 02:30N 55°33' E 014°21'0 0.0
2014-Sep-15 01:23N 55°33' E 014°21'0 0.0
2014-Sep-15 00:18N 55°33' E 014°21'0 0.0
2014-Sep-14 23:29N 55°33' E 014°21'0 0.0
2014-Sep-14 22:23N 55°33' E 014°22'0 0.0
2014-Sep-14 21:30N 55°33' E 014°21'0 0.0
2014-Sep-14 20:18N 55°33' E 014°21'0 0.0
2014-Sep-14 19:12N 55°33' E 014°22'0 0.0
2014-Sep-14 18:30N 55°33' E 014°21'0 0.0
2014-Sep-14 17:30N 55°33' E 014°21'0 0.0
2014-Sep-14 16:30N 55°33' E 014°22'0 0.0
2014-Sep-14 15:18N 55°33' E 014°21'0 0.0
2014-Sep-14 14:24N 55°33' E 014°21'0 0.0
2014-Sep-14 13:24N 55°33' E 014°22'0 0.0
2014-Sep-14 12:12N 55°33' E 014°21'0 0.0
2014-Sep-14 11:30N 55°33' E 014°22'0 0.0
2014-Sep-14 10:12N 55°33' E 014°21'0 0.0
2014-Sep-14 08:18N 55°33' E 014°21'0 0.0
2014-Sep-12 10:06N 55°33' E 014°21'0 0.0
2014-Sep-12 09:30N 55°33' E 014°21'0 0.0
2014-Sep-12 08:24N 55°33' E 014°21'0 0.0
2014-Sep-12 06:06N 55°33' E 014°21'0 0.0
2014-Sep-12 05:30N 55°33' E 014°21'0 0.0
2014-Sep-12 03:12N 55°33' E 014°21'0 0.0
2014-Sep-12 01:18N 55°33' E 014°21'0 0.0
2014-Sep-11 23:30N 55°33' E 014°21'0 0.0
2014-Sep-11 22:12N 55°33' E 014°22'0 0.0
2014-Sep-11 21:12N 55°33' E 014°21'0 0.0
2014-Sep-11 20:30N 55°33' E 014°21'0 0.0
2014-Sep-11 18:18N 55°33' E 014°21'0 0.0
2014-Sep-11 17:18N 55°33' E 014°21'0 0.0
2014-Sep-11 16:18N 55°33' E 014°22'3 4.2
2014-Sep-11 15:33N 55°34' E 014°27'7 6.6
2014-Sep-11 14:31N 55°37' E 014°38'7 3.0
2014-Sep-11 12:15N 55°39' E 014°49'2 0.4
2014-Sep-11 05:33N 55°37' E 014°49'9 6.9
2014-Sep-11 04:14N 55°36' E 014°33'5 7.3
2014-Sep-11 03:32N 55°34' E 014°24'2 1.6
2014-Sep-11 02:29N 55°33' E 014°21'0 0.0
2014-Sep-11 01:23N 55°33' E 014°21'0 0.0
2014-Sep-11 00:29N 55°33' E 014°21'0 0.0
2014-Sep-10 23:23N 55°33' E 014°21'0 0.0
2014-Sep-10 22:23N 55°33' E 014°21'0 0.0
2014-Sep-10 21:23N 55°33' E 014°21'0 0.0
2014-Sep-10 20:29N 55°33' E 014°21'0 0.0
2014-Sep-10 19:29N 55°33' E 014°21'0 0.0
2014-Sep-10 18:29N 55°33' E 014°21'0 0.0
2014-Sep-10 17:29N 55°33' E 014°21'4 4.1
2014-Sep-10 16:32N 55°35' E 014°28'6 6.1
2014-Sep-10 15:32N 55°37' E 014°38'10 0.8
2014-Sep-10 03:13N 55°34' E 014°22'0 0.2
2014-Sep-10 02:32N 55°33' E 014°21'0 0.0
2014-Sep-10 01:26N 55°33' E 014°21'0 0.0
2014-Sep-10 00:32N 55°33' E 014°21'0 0.0
2014-Sep-09 23:08N 55°33' E 014°21'0 0.0
2014-Sep-09 22:32N 55°33' E 014°21'0 0.0
2014-Sep-09 21:32N 55°33' E 014°21'0 0.0
2014-Sep-09 20:32N 55°33' E 014°21'0 0.0
2014-Sep-09 19:26N 55°33' E 014°21'0 0.0
2014-Sep-09 18:32N 55°33' E 014°21'0 0.0
2014-Sep-09 17:26N 55°33' E 014°21'0 0.0
2014-Sep-09 16:20N 55°33' E 014°21'0 0.0
2014-Sep-09 14:32N 55°33' E 014°21'0 0.0
2014-Sep-09 13:32N 55°33' E 014°21'0 0.0
2014-Sep-09 12:32N 55°33' E 014°21'0 0.0
2014-Sep-09 11:31N 55°33' E 014°21'0 0.0
2014-Sep-09 10:31N 55°33' E 014°22'0 0.0
2014-Sep-09 09:31N 55°33' E 014°22'0 0.0
2014-Sep-09 08:29N 55°33' E 014°21'0 0.0
2014-Sep-09 07:11N 55°33' E 014°21'0 0.0
2014-Sep-09 06:23N 55°33' E 014°21'0 0.0
2014-Sep-09 05:29N 55°33' E 014°21'0 0.0
2014-Sep-09 04:17N 55°33' E 014°21'0 0.0
2014-Sep-09 03:23N 55°33' E 014°21'0 0.0
2014-Sep-09 02:23N 55°33' E 014°21'  

Dump ship's entire track history